sensor_id;sensor_type;location;lat;lon;timestamp;temperature;humidity
40340;DHT22;26044;50.864;20.658;2022-08-19T00:08:23;19.90;99.90
40340;DHT22;26044;50.864;20.658;2022-08-19T00:10:51;19.90;99.90
40340;DHT22;26044;50.864;20.658;2022-08-19T00:13:18;19.90;99.90
40340;DHT22;26044;50.864;20.658;2022-08-19T00:15:45;19.90;99.90
40340;DHT22;26044;50.864;20.658;2022-08-19T00:18:11;19.90;99.90
40340;DHT22;26044;50.864;20.658;2022-08-19T00:20:38;19.90;99.90
40340;DHT22;26044;50.864;20.658;2022-08-19T00:23:07;19.90;99.90
40340;DHT22;26044;50.864;20.658;2022-08-19T00:25:33;19.90;99.90
40340;DHT22;26044;50.864;20.658;2022-08-19T00:28:00;19.90;99.90
40340;DHT22;26044;50.864;20.658;2022-08-19T00:30:27;19.80;99.90
40340;DHT22;26044;50.864;20.658;2022-08-19T00:32:54;19.90;99.90
40340;DHT22;26044;50.864;20.658;2022-08-19T00:35:22;19.90;99.90
40340;DHT22;26044;50.864;20.658;2022-08-19T00:37:50;19.90;99.90
40340;DHT22;26044;50.864;20.658;2022-08-19T00:40:17;19.90;99.90
40340;DHT22;26044;50.864;20.658;2022-08-19T00:42:46;19.80;99.90
40340;DHT22;26044;50.864;20.658;2022-08-19T00:45:22;19.90;99.90
40340;DHT22;26044;50.864;20.658;2022-08-19T00:47:49;19.90;99.90
40340;DHT22;26044;50.864;20.658;2022-08-19T00:50:20;19.90;99.90
40340;DHT22;26044;50.864;20.658;2022-08-19T00:52:50;19.80;99.90
40340;DHT22;26044;50.864;20.658;2022-08-19T00:55:22;19.90;99.90
40340;DHT22;26044;50.864;20.658;2022-08-19T00:57:55;19.80;99.90
40340;DHT22;26044;50.864;20.658;2022-08-19T01:00:23;19.80;99.90
40340;DHT22;26044;50.864;20.658;2022-08-19T01:02:51;19.90;99.90
40340;DHT22;26044;50.864;20.658;2022-08-19T01:05:25;19.80;99.90
40340;DHT22;26044;50.864;20.658;2022-08-19T01:07:56;19.80;99.90
40340;DHT22;26044;50.864;20.658;2022-08-19T01:10:26;19.80;99.90
40340;DHT22;26044;50.864;20.658;2022-08-19T01:12:54;19.80;99.90
40340;DHT22;26044;50.864;20.658;2022-08-19T01:19:35;19.80;99.90
40340;DHT22;26044;50.864;20.658;2022-08-19T01:22:25;19.80;99.90
40340;DHT22;26044;50.864;20.658;2022-08-19T01:24:59;19.80;99.90
40340;DHT22;26044;50.864;20.658;2022-08-19T01:27:26;19.80;99.90
40340;DHT22;26044;50.864;20.658;2022-08-19T01:30:00;19.80;99.90
40340;DHT22;26044;50.864;20.658;2022-08-19T01:32:27;19.70;99.90
40340;DHT22;26044;50.864;20.658;2022-08-19T01:35:00;19.80;99.90
40340;DHT22;26044;50.864;20.658;2022-08-19T01:37:29;19.80;99.90
40340;DHT22;26044;50.864;20.658;2022-08-19T01:39:57;19.80;99.90
40340;DHT22;26044;50.864;20.658;2022-08-19T01:42:24;19.80;99.90
40340;DHT22;26044;50.864;20.658;2022-08-19T01:44:56;19.70;99.90
40340;DHT22;26044;50.864;20.658;2022-08-19T01:47:23;19.70;99.90
40340;DHT22;26044;50.864;20.658;2022-08-19T01:49:50;19.70;99.90
40340;DHT22;26044;50.864;20.658;2022-08-19T01:52:17;19.70;99.90
40340;DHT22;26044;50.864;20.658;2022-08-19T01:54:44;19.70;99.90
40340;DHT22;26044;50.864;20.658;2022-08-19T01:57:12;19.70;99.90
40340;DHT22;26044;50.864;20.658;2022-08-19T01:59:41;19.70;99.90
40340;DHT22;26044;50.864;20.658;2022-08-19T02:02:09;19.70;99.90
40340;DHT22;26044;50.864;20.658;2022-08-19T02:04:36;19.70;99.90
40340;DHT22;26044;50.864;20.658;2022-08-19T02:07:06;19.70;99.90
40340;DHT22;26044;50.864;20.658;2022-08-19T02:09:34;19.70;99.90
40340;DHT22;26044;50.864;20.658;2022-08-19T02:12:01;19.80;99.90
40340;DHT22;26044;50.864;20.658;2022-08-19T02:14:28;19.70;99.90
40340;DHT22;26044;50.864;20.658;2022-08-19T02:16:55;19.70;99.90
40340;DHT22;26044;50.864;20.658;2022-08-19T02:19:22;19.70;99.90
40340;DHT22;26044;50.864;20.658;2022-08-19T02:21:49;19.70;99.90
40340;DHT22;26044;50.864;20.658;2022-08-19T02:24:15;19.70;99.90
40340;DHT22;26044;50.864;20.658;2022-08-19T02:26:42;19.70;99.90
40340;DHT22;26044;50.864;20.658;2022-08-19T02:29:09;19.70;99.90
40340;DHT22;26044;50.864;20.658;2022-08-19T02:31:36;19.70;99.90
40340;DHT22;26044;50.864;20.658;2022-08-19T02:34:09;19.70;99.90
40340;DHT22;26044;50.864;20.658;2022-08-19T02:36:36;19.70;99.90
40340;DHT22;26044;50.864;20.658;2022-08-19T02:43:09;19.70;99.90
40340;DHT22;26044;50.864;20.658;2022-08-19T02:45:38;19.80;99.90
40340;DHT22;26044;50.864;20.658;2022-08-19T02:48:08;19.80;99.90
40340;DHT22;26044;50.864;20.658;2022-08-19T02:50:48;19.80;99.90
40340;DHT22;26044;50.864;20.658;2022-08-19T02:53:27;19.80;99.90
40340;DHT22;26044;50.864;20.658;2022-08-19T02:55:54;19.80;99.90
40340;DHT22;26044;50.864;20.658;2022-08-19T02:58:22;19.80;99.90
40340;DHT22;26044;50.864;20.658;2022-08-19T03:03:21;19.90;99.90
40340;DHT22;26044;50.864;20.658;2022-08-19T03:05:48;19.80;99.90
40340;DHT22;26044;50.864;20.658;2022-08-19T03:08:23;19.80;99.90
40340;DHT22;26044;50.864;20.658;2022-08-19T03:10:51;19.80;99.90
40340;DHT22;26044;50.864;20.658;2022-08-19T03:13:19;19.80;99.90
40340;DHT22;26044;50.864;20.658;2022-08-19T03:15:52;19.80;99.90
40340;DHT22;26044;50.864;20.658;2022-08-19T03:18:21;19.80;99.90
40340;DHT22;26044;50.864;20.658;2022-08-19T03:20:51;19.80;99.90
40340;DHT22;26044;50.864;20.658;2022-08-19T03:23:21;19.80;99.90
40340;DHT22;26044;50.864;20.658;2022-08-19T03:25:50;19.80;99.90
40340;DHT22;26044;50.864;20.658;2022-08-19T03:28:37;19.80;99.90
40340;DHT22;26044;50.864;20.658;2022-08-19T03:31:13;19.80;99.90
40340;DHT22;26044;50.864;20.658;2022-08-19T03:34:00;19.80;99.90
40340;DHT22;26044;50.864;20.658;2022-08-19T03:36:29;19.80;99.90
40340;DHT22;26044;50.864;20.658;2022-08-19T03:38:58;19.80;99.90
40340;DHT22;26044;50.864;20.658;2022-08-19T03:41:31;19.80;99.90
40340;DHT22;26044;50.864;20.658;2022-08-19T03:44:11;19.80;99.90
40340;DHT22;26044;50.864;20.658;2022-08-19T03:46:44;19.80;99.90
40340;DHT22;26044;50.864;20.658;2022-08-19T03:49:11;19.80;99.90
40340;DHT22;26044;50.864;20.658;2022-08-19T03:51:42;19.80;99.90
40340;DHT22;26044;50.864;20.658;2022-08-19T03:54:11;19.90;99.90
40340;DHT22;26044;50.864;20.658;2022-08-19T03:56:41;19.90;99.90
40340;DHT22;26044;50.864;20.658;2022-08-19T03:59:13;19.90;99.90
40340;DHT22;26044;50.864;20.658;2022-08-19T04:01:40;20.00;99.90
40340;DHT22;26044;50.864;20.658;2022-08-19T04:04:08;20.00;99.90
40340;DHT22;26044;50.864;20.658;2022-08-19T04:06:37;20.00;99.90
40340;DHT22;26044;50.864;20.658;2022-08-19T04:09:08;20.10;99.90
40340;DHT22;26044;50.864;20.658;2022-08-19T04:11:39;20.10;99.90
40340;DHT22;26044;50.864;20.658;2022-08-19T04:14:12;20.20;99.90
40340;DHT22;26044;50.864;20.658;2022-08-19T04:16:40;20.20;99.90
40340;DHT22;26044;50.864;20.658;2022-08-19T04:19:08;20.20;99.90
40340;DHT22;26044;50.864;20.658;2022-08-19T04:21:34;20.20;99.90
40340;DHT22;26044;50.864;20.658;2022-08-19T04:24:02;20.30;99.90
40340;DHT22;26044;50.864;20.658;2022-08-19T04:26:35;20.30;99.90
40340;DHT22;26044;50.864;20.658;2022-08-19T04:29:10;20.40;99.90
40340;DHT22;26044;50.864;20.658;2022-08-19T04:31:39;20.40;99.90
40340;DHT22;26044;50.864;20.658;2022-08-19T04:34:09;20.40;99.90
40340;DHT22;26044;50.864;20.658;2022-08-19T04:36:41;20.50;99.90
40340;DHT22;26044;50.864;20.658;2022-08-19T04:39:12;20.50;99.90
40340;DHT22;26044;50.864;20.658;2022-08-19T04:41:39;20.50;99.90
40340;DHT22;26044;50.864;20.658;2022-08-19T04:44:55;20.60;99.90
40340;DHT22;26044;50.864;20.658;2022-08-19T05:01:44;20.90;99.90
40340;DHT22;26044;50.864;20.658;2022-08-19T05:12:08;21.10;99.90
40340;DHT22;26044;50.864;20.658;2022-08-19T05:14:41;21.20;99.90
40340;DHT22;26044;50.864;20.658;2022-08-19T05:17:08;21.20;99.90
40340;DHT22;26044;50.864;20.658;2022-08-19T05:19:55;21.20;99.90
40340;DHT22;26044;50.864;20.658;2022-08-19T05:22:43;21.30;99.90
40340;DHT22;26044;50.864;20.658;2022-08-19T05:25:15;21.40;99.90
40340;DHT22;26044;50.864;20.658;2022-08-19T05:27:42;21.40;99.90
40340;DHT22;26044;50.864;20.658;2022-08-19T05:30:10;21.50;99.90
40340;DHT22;26044;50.864;20.658;2022-08-19T05:32:38;21.70;99.90
40340;DHT22;26044;50.864;20.658;2022-08-19T05:35:06;21.80;99.90
40340;DHT22;26044;50.864;20.658;2022-08-19T05:37:33;21.80;99.90
40340;DHT22;26044;50.864;20.658;2022-08-19T05:40:00;21.90;99.90
40340;DHT22;26044;50.864;20.658;2022-08-19T05:42:28;22.00;99.90
40340;DHT22;26044;50.864;20.658;2022-08-19T05:44:54;22.10;99.90
40340;DHT22;26044;50.864;20.658;2022-08-19T05:47:23;22.10;99.90
40340;DHT22;26044;50.864;20.658;2022-08-19T05:49:50;22.20;99.90
40340;DHT22;26044;50.864;20.658;2022-08-19T05:52:18;22.20;99.90
40340;DHT22;26044;50.864;20.658;2022-08-19T05:54:52;22.30;99.90
40340;DHT22;26044;50.864;20.658;2022-08-19T05:57:21;22.30;99.90
40340;DHT22;26044;50.864;20.658;2022-08-19T05:59:49;22.40;99.90
40340;DHT22;26044;50.864;20.658;2022-08-19T06:02:23;22.50;99.90
40340;DHT22;26044;50.864;20.658;2022-08-19T06:04:50;22.60;99.90
40340;DHT22;26044;50.864;20.658;2022-08-19T06:07:17;22.60;99.90
40340;DHT22;26044;50.864;20.658;2022-08-19T06:09:43;22.70;99.90
40340;DHT22;26044;50.864;20.658;2022-08-19T06:12:29;22.80;99.90
40340;DHT22;26044;50.864;20.658;2022-08-19T06:15:00;22.80;99.90
40340;DHT22;26044;50.864;20.658;2022-08-19T06:17:29;22.90;99.90
40340;DHT22;26044;50.864;20.658;2022-08-19T06:19:57;22.90;99.90
40340;DHT22;26044;50.864;20.658;2022-08-19T06:22:24;23.00;99.90
40340;DHT22;26044;50.864;20.658;2022-08-19T06:24:51;23.10;99.90
40340;DHT22;26044;50.864;20.658;2022-08-19T06:27:20;23.20;99.90
40340;DHT22;26044;50.864;20.658;2022-08-19T06:29:47;23.30;99.90
40340;DHT22;26044;50.864;20.658;2022-08-19T06:32:16;23.40;99.90
40340;DHT22;26044;50.864;20.658;2022-08-19T06:34:43;23.50;99.90
40340;DHT22;26044;50.864;20.658;2022-08-19T06:37:11;23.60;99.90
40340;DHT22;26044;50.864;20.658;2022-08-19T06:39:39;23.70;99.90
40340;DHT22;26044;50.864;20.658;2022-08-19T06:42:07;23.70;99.90
40340;DHT22;26044;50.864;20.658;2022-08-19T06:44:40;23.80;99.90
40340;DHT22;26044;50.864;20.658;2022-08-19T06:47:12;23.90;99.90
40340;DHT22;26044;50.864;20.658;2022-08-19T06:49:58;24.00;99.90
40340;DHT22;26044;50.864;20.658;2022-08-19T06:52:32;24.20;99.90
40340;DHT22;26044;50.864;20.658;2022-08-19T06:55:05;24.30;99.90
40340;DHT22;26044;50.864;20.658;2022-08-19T06:57:33;24.40;99.90
40340;DHT22;26044;50.864;20.658;2022-08-19T07:00:00;24.50;99.90
40340;DHT22;26044;50.864;20.658;2022-08-19T07:02:27;24.70;99.90
40340;DHT22;26044;50.864;20.658;2022-08-19T07:04:54;24.80;99.90
40340;DHT22;26044;50.864;20.658;2022-08-19T07:07:24;24.90;99.90
40340;DHT22;26044;50.864;20.658;2022-08-19T07:09:51;25.00;99.90
40340;DHT22;26044;50.864;20.658;2022-08-19T07:12:29;25.10;99.90
40340;DHT22;26044;50.864;20.658;2022-08-19T07:15:03;25.20;99.90
40340;DHT22;26044;50.864;20.658;2022-08-19T07:17:30;25.30;99.90
40340;DHT22;26044;50.864;20.658;2022-08-19T07:20:00;25.40;99.90
40340;DHT22;26044;50.864;20.658;2022-08-19T07:22:33;25.50;99.90
40340;DHT22;26044;50.864;20.658;2022-08-19T07:25:00;25.60;99.90
40340;DHT22;26044;50.864;20.658;2022-08-19T07:27:30;25.80;99.90
40340;DHT22;26044;50.864;20.658;2022-08-19T07:29:59;25.80;99.90
40340;DHT22;26044;50.864;20.658;2022-08-19T07:32:26;25.90;99.90
40340;DHT22;26044;50.864;20.658;2022-08-19T07:34:54;26.00;99.90
40340;DHT22;26044;50.864;20.658;2022-08-19T07:37:23;26.10;99.90
40340;DHT22;26044;50.864;20.658;2022-08-19T07:39:52;26.10;99.90
40340;DHT22;26044;50.864;20.658;2022-08-19T07:42:18;26.30;99.90
40340;DHT22;26044;50.864;20.658;2022-08-19T07:44:47;26.30;99.90
40340;DHT22;26044;50.864;20.658;2022-08-19T07:47:17;26.40;99.90
40340;DHT22;26044;50.864;20.658;2022-08-19T07:50:07;26.40;99.90
40340;DHT22;26044;50.864;20.658;2022-08-19T07:52:36;26.50;99.90
40340;DHT22;26044;50.864;20.658;2022-08-19T07:55:06;26.60;99.90
40340;DHT22;26044;50.864;20.658;2022-08-19T07:57:53;26.80;99.90
40340;DHT22;26044;50.864;20.658;2022-08-19T08:00:20;26.90;99.90
40340;DHT22;26044;50.864;20.658;2022-08-19T08:02:50;26.90;99.90
40340;DHT22;26044;50.864;20.658;2022-08-19T08:05:20;27.00;99.90
40340;DHT22;26044;50.864;20.658;2022-08-19T08:08:10;26.90;99.90
40340;DHT22;26044;50.864;20.658;2022-08-19T08:11:11;27.10;99.90
40340;DHT22;26044;50.864;20.658;2022-08-19T08:13:41;27.20;99.90
40340;DHT22;26044;50.864;20.658;2022-08-19T08:16:08;27.20;99.90
40340;DHT22;26044;50.864;20.658;2022-08-19T08:18:39;27.40;99.90
40340;DHT22;26044;50.864;20.658;2022-08-19T08:21:08;27.40;99.90
40340;DHT22;26044;50.864;20.658;2022-08-19T08:23:35;27.40;99.90
40340;DHT22;26044;50.864;20.658;2022-08-19T08:26:05;27.60;99.90
40340;DHT22;26044;50.864;20.658;2022-08-19T08:28:32;27.60;99.90
40340;DHT22;26044;50.864;20.658;2022-08-19T08:30:58;27.80;99.90
40340;DHT22;26044;50.864;20.658;2022-08-19T08:33:27;27.80;99.90
40340;DHT22;26044;50.864;20.658;2022-08-19T08:36:00;27.90;99.90
40340;DHT22;26044;50.864;20.658;2022-08-19T08:38:29;28.00;99.90
40340;DHT22;26044;50.864;20.658;2022-08-19T08:41:21;28.10;99.90
40340;DHT22;26044;50.864;20.658;2022-08-19T08:43:51;28.10;99.90
40340;DHT22;26044;50.864;20.658;2022-08-19T08:46:23;28.20;99.90
40340;DHT22;26044;50.864;20.658;2022-08-19T08:51:51;28.50;99.90
40340;DHT22;26044;50.864;20.658;2022-08-19T08:54:30;28.50;99.90
40340;DHT22;26044;50.864;20.658;2022-08-19T08:57:04;28.60;97.70
40340;DHT22;26044;50.864;20.658;2022-08-19T08:59:38;28.70;98.90
40340;DHT22;26044;50.864;20.658;2022-08-19T09:02:05;28.70;96.00
40340;DHT22;26044;50.864;20.658;2022-08-19T09:04:34;28.80;95.80
40340;DHT22;26044;50.864;20.658;2022-08-19T09:07:31;28.90;95.70
40340;DHT22;26044;50.864;20.658;2022-08-19T09:10:10;29.10;91.10
40340;DHT22;26044;50.864;20.658;2022-08-19T09:12:59;29.10;91.10
40340;DHT22;26044;50.864;20.658;2022-08-19T09:15:40;29.10;91.70
40340;DHT22;26044;50.864;20.658;2022-08-19T09:18:13;29.20;92.70
40340;DHT22;26044;50.864;20.658;2022-08-19T09:20:45;29.30;95.10
40340;DHT22;26044;50.864;20.658;2022-08-19T09:23:14;29.30;92.00
40340;DHT22;26044;50.864;20.658;2022-08-19T09:25:40;29.40;92.70
40340;DHT22;26044;50.864;20.658;2022-08-19T09:28:07;29.50;89.30
40340;DHT22;26044;50.864;20.658;2022-08-19T09:30:48;29.60;89.70
40340;DHT22;26044;50.864;20.658;2022-08-19T09:33:18;29.70;90.00
40340;DHT22;26044;50.864;20.658;2022-08-19T09:35:46;29.80;90.70
40340;DHT22;26044;50.864;20.658;2022-08-19T09:38:20;29.90;92.40
40340;DHT22;26044;50.864;20.658;2022-08-19T09:40:47;29.90;88.40
40340;DHT22;26044;50.864;20.658;2022-08-19T09:43:14;29.90;90.90
40340;DHT22;26044;50.864;20.658;2022-08-19T09:45:59;30.00;90.70
40340;DHT22;26044;50.864;20.658;2022-08-19T09:48:26;30.20;90.90
40340;DHT22;26044;50.864;20.658;2022-08-19T09:50:53;30.20;91.80
40340;DHT22;26044;50.864;20.658;2022-08-19T09:53:21;30.50;87.70
40340;DHT22;26044;50.864;20.658;2022-08-19T09:55:51;31.10;86.60
40340;DHT22;26044;50.864;20.658;2022-08-19T09:58:17;31.50;81.10
40340;DHT22;26044;50.864;20.658;2022-08-19T10:00:51;31.90;79.40
40340;DHT22;26044;50.864;20.658;2022-08-19T10:03:19;32.20;74.70
40340;DHT22;26044;50.864;20.658;2022-08-19T10:05:51;32.10;75.50
40340;DHT22;26044;50.864;20.658;2022-08-19T10:08:24;32.50;76.80
40340;DHT22;26044;50.864;20.658;2022-08-19T10:10:53;32.30;73.80
40340;DHT22;26044;50.864;20.658;2022-08-19T10:13:24;32.50;73.50
40340;DHT22;26044;50.864;20.658;2022-08-19T10:15:54;32.50;71.60
40340;DHT22;26044;50.864;20.658;2022-08-19T10:18:23;32.60;73.20
40340;DHT22;26044;50.864;20.658;2022-08-19T10:20:51;32.70;73.20
40340;DHT22;26044;50.864;20.658;2022-08-19T10:23:20;32.60;72.00
40340;DHT22;26044;50.864;20.658;2022-08-19T10:25:48;32.40;71.50
40340;DHT22;26044;50.864;20.658;2022-08-19T10:28:16;32.60;72.60
40340;DHT22;26044;50.864;20.658;2022-08-19T10:30:45;32.50;70.20
40340;DHT22;26044;50.864;20.658;2022-08-19T10:33:12;32.60;71.40
40340;DHT22;26044;50.864;20.658;2022-08-19T10:35:40;32.40;70.60
40340;DHT22;26044;50.864;20.658;2022-08-19T10:38:23;32.30;71.60
40340;DHT22;26044;50.864;20.658;2022-08-19T10:41:09;32.30;71.80
40340;DHT22;26044;50.864;20.658;2022-08-19T10:43:37;32.20;71.20
40340;DHT22;26044;50.864;20.658;2022-08-19T10:46:07;32.10;71.50
40340;DHT22;26044;50.864;20.658;2022-08-19T10:48:40;32.20;71.90
40340;DHT22;26044;50.864;20.658;2022-08-19T10:51:08;32.10;71.20
40340;DHT22;26044;50.864;20.658;2022-08-19T10:53:53;31.90;71.20
40340;DHT22;26044;50.864;20.658;2022-08-19T10:56:22;31.90;71.40
40340;DHT22;26044;50.864;20.658;2022-08-19T10:59:08;32.00;73.60
40340;DHT22;26044;50.864;20.658;2022-08-19T11:01:35;32.10;74.00
40340;DHT22;26044;50.864;20.658;2022-08-19T11:04:04;31.90;70.30
40340;DHT22;26044;50.864;20.658;2022-08-19T11:06:31;32.00;71.40
40340;DHT22;26044;50.864;20.658;2022-08-19T11:08:58;31.80;71.30
40340;DHT22;26044;50.864;20.658;2022-08-19T11:11:27;31.90;72.10
40340;DHT22;26044;50.864;20.658;2022-08-19T11:13:55;31.90;72.60
40340;DHT22;26044;50.864;20.658;2022-08-19T11:16:25;32.00;70.50
40340;DHT22;26044;50.864;20.658;2022-08-19T11:18:57;32.00;69.60
40340;DHT22;26044;50.864;20.658;2022-08-19T11:21:29;31.70;70.70
40340;DHT22;26044;50.864;20.658;2022-08-19T11:24:03;31.80;72.00
40340;DHT22;26044;50.864;20.658;2022-08-19T11:26:30;31.60;71.90
40340;DHT22;26044;50.864;20.658;2022-08-19T11:28:59;31.60;70.80
40340;DHT22;26044;50.864;20.658;2022-08-19T11:31:31;31.60;70.30
40340;DHT22;26044;50.864;20.658;2022-08-19T11:34:00;31.60;70.00
40340;DHT22;26044;50.864;20.658;2022-08-19T11:36:29;31.60;69.90
40340;DHT22;26044;50.864;20.658;2022-08-19T11:38:56;31.60;68.60
40340;DHT22;26044;50.864;20.658;2022-08-19T11:41:24;31.60;69.90
40340;DHT22;26044;50.864;20.658;2022-08-19T11:43:52;31.60;71.80
40340;DHT22;26044;50.864;20.658;2022-08-19T11:46:23;31.60;70.90
40340;DHT22;26044;50.864;20.658;2022-08-19T11:48:50;31.60;69.80
40340;DHT22;26044;50.864;20.658;2022-08-19T11:51:20;31.50;69.80
40340;DHT22;26044;50.864;20.658;2022-08-19T11:53:48;31.50;68.40
40340;DHT22;26044;50.864;20.658;2022-08-19T11:56:18;31.50;68.70
40340;DHT22;26044;50.864;20.658;2022-08-19T11:58:46;31.60;68.40
40340;DHT22;26044;50.864;20.658;2022-08-19T12:01:15;31.50;69.50
40340;DHT22;26044;50.864;20.658;2022-08-19T12:03:45;31.40;68.30
40340;DHT22;26044;50.864;20.658;2022-08-19T12:06:13;31.50;67.10
40340;DHT22;26044;50.864;20.658;2022-08-19T12:08:44;31.50;67.00
40340;DHT22;26044;50.864;20.658;2022-08-19T12:11:12;31.60;67.80
40340;DHT22;26044;50.864;20.658;2022-08-19T12:13:47;31.60;68.30
40340;DHT22;26044;50.864;20.658;2022-08-19T12:16:23;31.60;66.70
40340;DHT22;26044;50.864;20.658;2022-08-19T12:18:51;31.70;69.10
40340;DHT22;26044;50.864;20.658;2022-08-19T12:21:26;31.80;68.90
40340;DHT22;26044;50.864;20.658;2022-08-19T12:23:56;31.80;65.70
40340;DHT22;26044;50.864;20.658;2022-08-19T12:26:25;31.90;66.40
40340;DHT22;26044;50.864;20.658;2022-08-19T12:28:53;31.80;65.30
40340;DHT22;26044;50.864;20.658;2022-08-19T12:31:20;31.80;65.20
40340;DHT22;26044;50.864;20.658;2022-08-19T12:33:47;31.80;67.20
40340;DHT22;26044;50.864;20.658;2022-08-19T12:36:15;31.90;67.50
40340;DHT22;26044;50.864;20.658;2022-08-19T12:38:42;31.90;67.50
40340;DHT22;26044;50.864;20.658;2022-08-19T12:41:12;32.00;67.10
40340;DHT22;26044;50.864;20.658;2022-08-19T12:43:39;32.10;66.40
40340;DHT22;26044;50.864;20.658;2022-08-19T12:46:08;32.10;69.20
40340;DHT22;26044;50.864;20.658;2022-08-19T12:48:37;32.30;68.70
40340;DHT22;26044;50.864;20.658;2022-08-19T12:51:14;32.20;66.50
40340;DHT22;26044;50.864;20.658;2022-08-19T12:53:42;32.20;66.10
40340;DHT22;26044;50.864;20.658;2022-08-19T12:56:10;32.20;64.70
40340;DHT22;26044;50.864;20.658;2022-08-19T12:58:38;32.20;65.30
40340;DHT22;26044;50.864;20.658;2022-08-19T13:01:08;32.30;66.70
40340;DHT22;26044;50.864;20.658;2022-08-19T13:03:35;32.40;68.20
40340;DHT22;26044;50.864;20.658;2022-08-19T13:06:07;32.30;66.20
40340;DHT22;26044;50.864;20.658;2022-08-19T13:08:34;32.20;67.10
40340;DHT22;26044;50.864;20.658;2022-08-19T13:11:14;32.30;65.30
40340;DHT22;26044;50.864;20.658;2022-08-19T13:13:42;32.30;64.80
40340;DHT22;26044;50.864;20.658;2022-08-19T13:16:11;32.20;66.60
40340;DHT22;26044;50.864;20.658;2022-08-19T13:18:39;32.20;65.90
40340;DHT22;26044;50.864;20.658;2022-08-19T13:21:08;32.30;65.30
40340;DHT22;26044;50.864;20.658;2022-08-19T13:23:35;32.20;65.30
40340;DHT22;26044;50.864;20.658;2022-08-19T13:26:05;32.20;66.60
40340;DHT22;26044;50.864;20.658;2022-08-19T13:28:33;32.10;64.20
40340;DHT22;26044;50.864;20.658;2022-08-19T13:31:21;32.00;66.30
40340;DHT22;26044;50.864;20.658;2022-08-19T13:34:07;32.00;66.70
40340;DHT22;26044;50.864;20.658;2022-08-19T13:36:36;32.00;67.80
40340;DHT22;26044;50.864;20.658;2022-08-19T13:39:04;32.00;66.70
40340;DHT22;26044;50.864;20.658;2022-08-19T13:41:31;32.10;66.20
40340;DHT22;26044;50.864;20.658;2022-08-19T13:44:00;32.10;66.60
40340;DHT22;26044;50.864;20.658;2022-08-19T13:46:28;32.10;65.50
40340;DHT22;26044;50.864;20.658;2022-08-19T13:48:57;32.00;67.10
40340;DHT22;26044;50.864;20.658;2022-08-19T13:51:23;31.90;65.50
40340;DHT22;26044;50.864;20.658;2022-08-19T13:53:50;31.90;69.10
40340;DHT22;26044;50.864;20.658;2022-08-19T13:56:19;31.90;66.30
40340;DHT22;26044;50.864;20.658;2022-08-19T13:58:52;31.90;66.70
40340;DHT22;26044;50.864;20.658;2022-08-19T14:01:23;31.90;67.00
40340;DHT22;26044;50.864;20.658;2022-08-19T14:03:50;31.90;65.70
40340;DHT22;26044;50.864;20.658;2022-08-19T14:06:18;31.90;65.60
40340;DHT22;26044;50.864;20.658;2022-08-19T14:08:45;32.00;65.00
40340;DHT22;26044;50.864;20.658;2022-08-19T14:11:13;31.90;64.80
40340;DHT22;26044;50.864;20.658;2022-08-19T14:13:40;31.90;66.30
40340;DHT22;26044;50.864;20.658;2022-08-19T14:16:10;31.80;65.60
40340;DHT22;26044;50.864;20.658;2022-08-19T14:18:40;31.80;65.60
40340;DHT22;26044;50.864;20.658;2022-08-19T14:21:07;31.80;64.50
40340;DHT22;26044;50.864;20.658;2022-08-19T14:23:35;31.70;65.60
40340;DHT22;26044;50.864;20.658;2022-08-19T14:26:04;31.70;65.50
40340;DHT22;26044;50.864;20.658;2022-08-19T14:28:31;31.70;66.30
40340;DHT22;26044;50.864;20.658;2022-08-19T14:30:58;31.60;66.80
40340;DHT22;26044;50.864;20.658;2022-08-19T14:33:25;31.70;66.50
40340;DHT22;26044;50.864;20.658;2022-08-19T14:35:56;31.60;65.30
40340;DHT22;26044;50.864;20.658;2022-08-19T14:38:25;31.60;66.50
40340;DHT22;26044;50.864;20.658;2022-08-19T14:41:26;31.60;65.80
40340;DHT22;26044;50.864;20.658;2022-08-19T14:43:54;31.50;66.20
40340;DHT22;26044;50.864;20.658;2022-08-19T14:46:23;31.50;66.70
40340;DHT22;26044;50.864;20.658;2022-08-19T14:48:54;31.50;65.60
40340;DHT22;26044;50.864;20.658;2022-08-19T14:51:37;31.50;65.80
40340;DHT22;26044;50.864;20.658;2022-08-19T14:54:04;31.50;66.50
40340;DHT22;26044;50.864;20.658;2022-08-19T14:56:31;31.50;66.30
40340;DHT22;26044;50.864;20.658;2022-08-19T14:58:58;31.50;67.20
40340;DHT22;26044;50.864;20.658;2022-08-19T15:01:27;31.40;67.50
40340;DHT22;26044;50.864;20.658;2022-08-19T15:03:54;31.40;66.30
40340;DHT22;26044;50.864;20.658;2022-08-19T15:06:22;31.40;66.70
40340;DHT22;26044;50.864;20.658;2022-08-19T15:08:50;31.40;66.90
40340;DHT22;26044;50.864;20.658;2022-08-19T15:11:20;31.30;68.80
40340;DHT22;26044;50.864;20.658;2022-08-19T15:13:48;31.20;69.30
40340;DHT22;26044;50.864;20.658;2022-08-19T15:16:17;31.10;69.20
40340;DHT22;26044;50.864;20.658;2022-08-19T15:18:45;31.00;69.90
40340;DHT22;26044;50.864;20.658;2022-08-19T15:21:13;31.00;70.50
40340;DHT22;26044;50.864;20.658;2022-08-19T15:23:53;30.90;70.50
40340;DHT22;26044;50.864;20.658;2022-08-19T15:26:20;30.80;70.50
40340;DHT22;26044;50.864;20.658;2022-08-19T15:28:47;30.80;70.60
40340;DHT22;26044;50.864;20.658;2022-08-19T15:31:17;30.70;71.10
40340;DHT22;26044;50.864;20.658;2022-08-19T15:33:56;30.60;71.30
40340;DHT22;26044;50.864;20.658;2022-08-19T15:36:24;30.60;71.80
40340;DHT22;26044;50.864;20.658;2022-08-19T15:38:52;30.50;71.50
40340;DHT22;26044;50.864;20.658;2022-08-19T15:41:21;30.50;71.80
40340;DHT22;26044;50.864;20.658;2022-08-19T15:46:29;30.30;72.20
40340;DHT22;26044;50.864;20.658;2022-08-19T15:48:57;30.30;71.40
40340;DHT22;26044;50.864;20.658;2022-08-19T15:51:28;30.30;72.10
40340;DHT22;26044;50.864;20.658;2022-08-19T15:53:56;30.20;72.50
40340;DHT22;26044;50.864;20.658;2022-08-19T15:56:24;30.20;72.10
40340;DHT22;26044;50.864;20.658;2022-08-19T15:58:53;30.20;72.50
40340;DHT22;26044;50.864;20.658;2022-08-19T16:02:06;30.10;71.80
40340;DHT22;26044;50.864;20.658;2022-08-19T16:04:58;30.10;71.60
40340;DHT22;26044;50.864;20.658;2022-08-19T16:07:43;30.00;71.80
40340;DHT22;26044;50.864;20.658;2022-08-19T16:10:10;29.90;71.90
40340;DHT22;26044;50.864;20.658;2022-08-19T16:12:55;29.90;71.40
40340;DHT22;26044;50.864;20.658;2022-08-19T16:15:26;29.90;71.70
40340;DHT22;26044;50.864;20.658;2022-08-19T16:17:54;29.80;71.80
40340;DHT22;26044;50.864;20.658;2022-08-19T16:20:23;29.80;72.30
40340;DHT22;26044;50.864;20.658;2022-08-19T16:22:52;29.70;71.50